createdAt,value
2017-06-11T14:29:22.440Z,23.90
2017-06-11T14:31:49.853Z,24.10
2017-06-11T14:34:17.076Z,26.70
2017-06-11T14:36:44.550Z,26.70
2017-06-11T14:39:11.751Z,25.70
2017-06-11T14:41:39.020Z,24.90
2017-06-11T14:44:06.258Z,24.60
2017-06-11T14:46:33.483Z,26.10
2017-06-11T14:49:00.729Z,25.20
2017-06-11T14:51:27.935Z,27.00
2017-06-11T14:53:55.131Z,27.40
2017-06-11T14:56:22.528Z,25.70
2017-06-11T14:58:49.711Z,26.10
2017-06-11T15:01:16.930Z,25.70
2017-06-11T15:03:44.215Z,26.30
2017-06-11T15:06:11.483Z,27.90
2017-06-11T15:08:38.727Z,25.20
2017-06-11T15:11:05.981Z,25.70
2017-06-11T15:13:33.218Z,29.30
2017-06-11T15:16:00.451Z,28.90
2017-06-11T15:18:27.797Z,29.00
2017-06-11T15:20:54.991Z,33.40
2017-06-11T15:23:22.251Z,30.50
2017-06-11T15:25:49.459Z,31.00
2017-06-11T15:28:16.777Z,29.40
2017-06-11T15:30:44.047Z,30.70
2017-06-11T15:33:11.240Z,31.50
2017-06-11T15:35:38.537Z,32.00
2017-06-11T15:38:05.746Z,33.90
2017-06-11T15:40:32.939Z,36.10
2017-06-11T15:43:00.327Z,34.90
2017-06-11T15:45:27.779Z,37.40
2017-06-11T15:47:54.967Z,36.80
2017-06-11T15:50:22.268Z,35.00
2017-06-11T15:52:49.509Z,34.70
2017-06-11T15:55:16.788Z,36.50
2017-06-11T15:57:44.078Z,36.10
2017-06-11T16:00:11.328Z,37.90
2017-06-11T16:02:38.631Z,38.50
2017-06-11T16:05:05.974Z,39.00
2017-06-11T16:07:33.384Z,40.70
2017-06-11T16:10:00.676Z,39.00
2017-06-11T16:12:28.416Z,41.00
2017-06-11T16:14:55.761Z,39.40
2017-06-11T16:17:23.089Z,38.80
2017-06-11T16:19:50.306Z,40.10
2017-06-11T16:22:17.559Z,38.80
2017-06-11T16:24:44.928Z,40.40
2017-06-11T16:27:12.232Z,37.10
2017-06-11T16:29:39.508Z,39.60
2017-06-11T16:32:06.761Z,38.40
2017-06-11T16:34:34.143Z,39.60
2017-06-11T16:37:01.388Z,38.50
2017-06-11T16:39:28.676Z,38.70
2017-06-11T16:41:55.960Z,38.30
2017-06-11T16:44:23.415Z,39.40
2017-06-11T16:46:50.669Z,38.40
2017-06-11T16:49:17.933Z,39.70
2017-06-11T16:51:45.170Z,38.30
2017-06-11T16:54:12.414Z,37.20
2017-06-11T16:56:39.689Z,38.70
2017-06-11T16:59:06.955Z,38.30
2017-06-11T17:01:34.277Z,39.90
2017-06-11T17:04:01.515Z,39.00
2017-06-11T17:06:28.811Z,38.50
2017-06-11T17:08:56.071Z,38.10
2017-06-11T17:11:23.283Z,39.80
2017-06-11T17:13:50.567Z,39.70
2017-06-11T17:16:17.900Z,39.30
2017-06-11T17:18:45.221Z,40.30
2017-06-11T17:21:12.465Z,39.80
2017-06-11T17:23:54.574Z,40.20
2017-06-11T17:26:21.807Z,40.30
2017-06-11T17:28:49.059Z,42.20
2017-06-11T17:31:15.816Z,42.20
2017-06-11T17:33:43.076Z,42.40
2017-06-11T17:36:11.125Z,42.40
2017-06-11T17:38:38.371Z,42.90
2017-06-11T17:41:04.948Z,42.90
2017-06-11T17:43:32.156Z,44.10
2017-06-11T17:45:58.655Z,44.10
2017-06-11T17:48:25.948Z,43.80
2017-06-11T17:50:53.248Z,44.30
2017-06-11T17:53:19.731Z,44.30
2017-06-11T17:55:47.158Z,43.40
2017-06-11T17:58:14.388Z,42.90
2017-06-11T18:00:40.903Z,42.90
2017-06-11T18:03:07.398Z,44.00
2017-06-11T18:05:34.744Z,46.30
2017-06-11T18:08:02.099Z,48.60
2017-06-11T18:10:28.602Z,48.60
2017-06-11T18:12:55.858Z,47.30
2017-06-11T18:15:23.191Z,48.20
2017-06-11T18:17:50.597Z,48.60
2017-06-11T18:20:17.098Z,48.50
2017-06-11T18:22:44.412Z,48.00
2017-06-11T18:25:11.681Z,48.50
2017-06-11T18:27:39.063Z,47.80
2017-06-11T18:30:06.320Z,48.20
2017-06-11T18:32:33.633Z,48.60
2017-06-11T18:35:00.151Z,48.60
2017-06-11T18:37:27.317Z,48.40
2017-06-11T18:39:54.627Z,47.30
2017-06-11T18:42:22.886Z,46.60
2017-06-11T18:44:50.142Z,46.60
2017-06-11T18:47:17.482Z,47.80
2017-06-11T18:49:44.752Z,47.60
2017-06-11T18:52:12.062Z,48.00
2017-06-11T18:54:39.068Z,48.00
2017-06-11T18:57:06.469Z,51.80
2017-06-11T18:59:33.680Z,51.70
2017-06-11T19:02:00.299Z,51.70
2017-06-11T19:04:26.857Z,51.00
2017-06-11T19:06:54.107Z,52.90
2017-06-11T19:09:21.531Z,54.90
2017-06-11T19:11:48.906Z,55.20
2017-06-11T19:14:16.211Z,55.90
2017-06-11T19:16:44.147Z,55.40
2017-06-11T19:19:11.369Z,57.80
2017-06-11T19:21:38.657Z,54.50
2017-06-11T19:24:05.935Z,54.40
2017-06-11T19:26:33.343Z,53.70
2017-06-11T19:29:00.652Z,60.10
2017-06-11T19:31:28.228Z,60.90
2017-06-11T19:33:55.502Z,57.50
2017-06-11T19:36:22.074Z,57.50
2017-06-11T19:38:49.300Z,56.90
2017-06-11T19:41:16.612Z,58.40
2017-06-11T19:43:44.053Z,59.00
2017-06-11T19:46:11.324Z,59.00
2017-06-11T19:48:38.654Z,60.50
2017-06-11T19:51:10.929Z,59.70
2017-06-11T19:53:38.348Z,59.10
2017-06-11T19:56:05.620Z,59.80
2017-06-11T19:58:33.015Z,60.30
2017-06-11T20:01:00.340Z,61.00
2017-06-11T20:03:27.716Z,61.30
2017-06-11T20:05:55.108Z,60.20
2017-06-11T20:08:22.514Z,60.10
2017-06-11T20:10:49.873Z,60.90
2017-06-11T20:13:17.898Z,60.20
2017-06-11T20:15:45.213Z,59.40
2017-06-11T20:18:12.613Z,60.30
2017-06-11T20:20:40.010Z,58.70
2017-06-11T20:23:07.293Z,58.30
2017-06-11T20:25:34.724Z,57.60
2017-06-11T20:28:02.072Z,57.70
2017-06-11T20:30:29.423Z,57.80
2017-06-11T20:32:56.736Z,57.70
2017-06-11T20:35:24.133Z,56.90
2017-06-11T20:37:51.412Z,57.00
2017-06-11T20:40:18.888Z,56.80
2017-06-11T20:42:46.452Z,57.00
2017-06-11T20:45:13.695Z,56.90
2017-06-11T20:47:41.148Z,56.20
2017-06-11T20:50:08.549Z,56.90
2017-06-11T20:52:36.012Z,56.10
2017-06-11T20:55:03.284Z,55.90
2017-06-11T20:57:30.713Z,56.20
2017-06-11T20:59:57.956Z,55.90
2017-06-11T21:02:25.284Z,56.40
2017-06-11T21:04:52.706Z,56.90
2017-06-11T21:07:20.052Z,56.60
2017-06-11T21:09:47.375Z,57.00
2017-06-11T21:12:29.552Z,56.80
2017-06-11T21:14:56.813Z,56.80
2017-06-11T21:17:24.101Z,56.60
2017-06-11T21:19:51.511Z,56.60
2017-06-11T21:22:18.785Z,56.80
2017-06-11T21:24:46.095Z,56.80
2017-06-11T21:27:13.408Z,56.60
2017-06-11T21:29:40.832Z,56.60
2017-06-11T21:32:08.289Z,56.80
2017-06-11T21:34:36.312Z,57.20
2017-06-11T21:37:03.855Z,57.20
2017-06-11T21:39:31.218Z,57.60
2017-06-11T21:41:58.560Z,57.70
2017-06-11T21:44:26.897Z,57.70
2017-06-11T21:46:54.320Z,57.60
2017-06-11T21:49:21.561Z,57.90
2017-06-11T21:51:48.819Z,57.30
2017-06-11T21:54:16.179Z,57.20
2017-06-11T21:56:43.490Z,57.00
2017-06-11T21:59:10.853Z,57.70
2017-06-11T22:01:38.366Z,57.40
2017-06-11T22:04:05.723Z,57.40
2017-06-11T22:06:33.001Z,58.70
2017-06-11T22:09:00.430Z,58.80
2017-06-11T22:11:27.934Z,58.30
2017-06-11T22:13:55.205Z,59.20
2017-06-11T22:16:22.594Z,58.40
2017-06-11T22:19:04.727Z,58.30
2017-06-11T22:21:32.041Z,58.40
2017-06-11T22:23:59.271Z,58.90
2017-06-11T22:26:26.592Z,59.60
2017-06-11T22:28:53.963Z,59.50
2017-06-11T22:31:21.303Z,59.70
2017-06-11T22:33:48.574Z,60.00
2017-06-11T22:36:15.840Z,60.50
2017-06-11T22:38:43.071Z,61.90
2017-06-11T22:41:10.316Z,60.80
2017-06-11T22:43:37.571Z,62.60
2017-06-11T22:46:04.942Z,63.00
2017-06-11T22:48:32.562Z,63.40
2017-06-11T22:50:59.799Z,65.00
2017-06-11T22:53:27.073Z,63.10
2017-06-11T22:55:54.412Z,65.10
2017-06-11T22:58:21.758Z,64.60
2017-06-11T23:00:49.431Z,65.00
2017-06-11T23:03:16.720Z,67.10
2017-06-11T23:05:43.940Z,66.50
2017-06-11T23:08:11.148Z,67.10
2017-06-11T23:10:38.439Z,69.80
2017-06-11T23:13:05.639Z,72.00
2017-06-11T23:15:32.864Z,72.00
2017-06-11T23:18:00.108Z,71.50
2017-06-11T23:20:27.291Z,71.90
2017-06-11T23:22:54.504Z,71.70
2017-06-11T23:25:21.719Z,73.60
2017-06-11T23:27:48.877Z,72.60
2017-06-11T23:30:16.116Z,74.70
2017-06-11T23:32:43.951Z,74.70
2017-06-11T23:35:11.151Z,73.60
2017-06-11T23:37:38.400Z,74.60
2017-06-11T23:40:05.631Z,75.90
2017-06-11T23:42:33.000Z,75.50
2017-06-11T23:45:00.343Z,76.30
2017-06-11T23:47:27.535Z,76.40
2017-06-11T23:49:54.805Z,76.60
2017-06-11T23:52:21.988Z,79.60
2017-06-11T23:54:49.180Z,79.40
2017-06-11T23:57:16.420Z,79.70
2017-06-11T23:59:43.583Z,82.40
